KSKA/SKA METAR and TAF weather

Enter ICAO airport designator
Station Type Date Time Source
KSKA METAR 2024/04/15 07:55 UTC NOAA

KSKA 150755Z 22013KT 10SM CLR 10/03 A2980 RMK AO2A SLP084 T00990034 402330065 $


Station Type Date Time Source
KSKA Decoded METAR 2024/04/15 07:55 UTC NOAA

Fairchild Air Force Base, WA, United States (KSKA) 47-37N 117-39W
Apr 15, 2024 - 03:55 AM EDT / 2024.04.15 0755 UTC
Wind: from the SW (220 degrees) at 15 MPH (13 KT):0
Visibility: 10 mile(s):0
Sky conditions: clear
Temperature: 49.8 F (9.9 C)
Dew Point: 38.1 F (3.4 C)
Relative Humidity: 63%
Pressure (altimeter): 29.8 in. Hg (1009 hPa)
ob: KSKA 150755Z 22013KT 10SM CLR 10/03 A2980 RMK AO2A SLP084 T00990034 402330065
cycle: 8

Station Type Date Time Source
KSKA TAF 2024/04/15 03:54 UTC NOAA